createdAt,value
2023-03-26T00:00:31.021Z,99364.38
2023-03-26T00:03:33.930Z,99354.56
2023-03-26T00:06:39.445Z,99367.56
2023-03-26T00:09:41.538Z,99363.03
2023-03-26T00:12:43.071Z,99367.84
2023-03-26T00:15:44.640Z,99369.94
2023-03-26T00:18:47.223Z,99365.59
2023-03-26T00:21:48.627Z,99371.50
2023-03-26T00:24:51.133Z,99367.94
2023-03-26T00:27:52.558Z,99360.38
2023-03-26T00:31:02.912Z,99354.66
2023-03-26T00:34:05.692Z,99356.38
2023-03-26T00:37:08.766Z,99355.16
2023-03-26T00:40:10.869Z,99362.03
2023-03-26T00:43:18.890Z,99354.34
2023-03-26T00:46:20.625Z,99357.00
2023-03-26T00:49:22.091Z,99354.66
2023-03-26T00:52:23.805Z,99344.25
2023-03-26T00:55:25.317Z,99339.31
2023-03-26T00:58:27.204Z,99336.34
2023-03-26T01:01:30.362Z,99328.56
2023-03-26T01:04:35.309Z,99323.41
2023-03-26T01:07:37.320Z,99318.63
2023-03-26T01:10:38.961Z,99319.56
2023-03-26T01:13:49.452Z,99316.44
2023-03-26T01:17:03.317Z,99306.75
2023-03-26T01:20:15.461Z,99300.78
2023-03-26T01:23:23.880Z,99305.03
2023-03-26T01:26:31.419Z,99281.34
2023-03-26T01:29:48.057Z,99273.13
2023-03-26T01:33:01.700Z,99268.69
2023-03-26T01:36:12.455Z,99261.63
2023-03-26T01:39:29.091Z,99254.63
2023-03-26T01:42:35.743Z,99249.16
2023-03-26T01:45:40.356Z,99241.66
2023-03-26T01:48:46.778Z,99235.03
2023-03-26T01:51:48.386Z,99221.34
2023-03-26T01:54:50.199Z,99217.56
2023-03-26T01:58:10.438Z,99203.22
2023-03-26T02:01:30.305Z,99185.72
2023-03-26T02:05:02.499Z,99175.19
2023-03-26T02:08:16.477Z,99160.84
2023-03-26T02:11:19.990Z,99150.53
2023-03-26T02:14:21.610Z,99139.44
2023-03-26T02:17:24.292Z,99136.19
2023-03-26T02:20:30.164Z,99137.47
2023-03-26T02:23:35.671Z,99138.13
2023-03-26T02:26:38.007Z,99131.56
2023-03-26T02:29:45.077Z,99127.13
2023-03-26T02:32:47.355Z,99113.44
2023-03-26T02:35:49.033Z,99114.94
2023-03-26T02:38:51.473Z,99096.53
2023-03-26T02:41:52.867Z,99095.13
2023-03-26T02:44:54.530Z,99089.41
2023-03-26T02:48:16.218Z,99087.09
2023-03-26T02:51:27.358Z,99078.78
2023-03-26T02:54:38.217Z,99080.56
2023-03-26T02:57:49.730Z,99078.28
2023-03-26T03:00:56.779Z,99068.81
2023-03-26T03:04:08.243Z,99070.28
2023-03-26T03:07:14.322Z,99069.81
2023-03-26T03:10:15.954Z,99067.97
2023-03-26T03:13:38.064Z,99039.38
2023-03-26T03:16:39.783Z,99044.59
2023-03-26T03:19:43.910Z,99044.31
2023-03-26T03:22:45.619Z,99051.66
2023-03-26T03:25:48.081Z,99044.94
2023-03-26T03:28:49.560Z,99032.53
2023-03-26T03:31:51.169Z,99023.53
2023-03-26T03:35:13.552Z,99016.81
2023-03-26T03:38:19.179Z,99017.16
2023-03-26T03:41:23.392Z,99009.16
2023-03-26T03:44:24.917Z,98995.56
2023-03-26T03:47:26.438Z,98988.38
2023-03-26T03:50:27.902Z,98987.56
2023-03-26T03:53:55.753Z,98983.50
2023-03-26T03:57:31.121Z,98988.06
2023-03-26T04:00:41.564Z,98979.72
2023-03-26T04:04:03.627Z,98969.94
2023-03-26T04:07:21.151Z,98962.44
2023-03-26T04:10:44.317Z,98949.81
2023-03-26T04:14:17.862Z,98941.00
2023-03-26T04:17:30.628Z,98944.28
2023-03-26T04:20:33.782Z,98936.72
2023-03-26T04:23:37.446Z,98932.53
2023-03-26T04:26:53.511Z,98936.09
2023-03-26T04:30:01.569Z,98922.84
2023-03-26T04:33:04.368Z,98914.72
2023-03-26T04:36:10.142Z,98911.75
2023-03-26T04:39:13.079Z,98910.72
2023-03-26T04:42:41.581Z,98903.75
2023-03-26T04:45:52.324Z,98885.44
2023-03-26T04:48:55.565Z,98867.78
2023-03-26T04:51:57.181Z,98859.94
2023-03-26T04:55:24.763Z,98854.56
2023-03-26T04:58:35.235Z,98832.38
2023-03-26T05:01:37.748Z,98831.03
2023-03-26T05:04:39.756Z,98841.28
2023-03-26T05:07:42.701Z,98831.53
2023-03-26T05:10:46.719Z,98821.72
2023-03-26T05:13:54.774Z,98809.84
2023-03-26T05:16:56.939Z,98801.19
2023-03-26T05:19:58.770Z,98809.84
2023-03-26T05:23:00.325Z,98795.31
2023-03-26T05:26:07.645Z,98797.91
2023-03-26T05:29:10.564Z,98779.31
2023-03-26T05:32:17.871Z,98775.69
2023-03-26T05:35:20.720Z,98767.88
2023-03-26T05:38:23.171Z,98769.53
2023-03-26T05:41:24.642Z,98754.88
2023-03-26T05:44:26.252Z,98763.50
2023-03-26T05:47:27.931Z,98749.34
2023-03-26T05:50:29.833Z,98729.75
2023-03-26T05:53:35.090Z,98724.84
2023-03-26T05:56:54.882Z,98719.94
2023-03-26T06:00:16.329Z,98714.44
2023-03-26T06:03:23.086Z,98699.06
2023-03-26T06:06:47.201Z,98690.25
2023-03-26T06:09:49.020Z,98692.53
2023-03-26T06:12:50.813Z,98684.41
2023-03-26T06:15:53.435Z,98678.19
2023-03-26T06:19:00.014Z,98672.00
2023-03-26T06:22:06.886Z,98666.56
2023-03-26T06:25:31.305Z,98662.84
2023-03-26T06:28:48.015Z,98666.94
2023-03-26T06:32:19.674Z,98660.47
2023-03-26T06:35:26.465Z,98655.25
2023-03-26T06:38:28.937Z,98649.47
2023-03-26T06:41:34.172Z,98652.41
2023-03-26T06:44:54.472Z,98646.66
2023-03-26T06:48:21.610Z,98646.44
2023-03-26T06:51:41.219Z,98655.53
2023-03-26T06:54:42.641Z,98644.88
2023-03-26T06:58:02.479Z,98651.53
2023-03-26T07:01:17.696Z,98640.13
2023-03-26T07:04:37.830Z,98646.56
2023-03-26T07:07:59.528Z,98639.91
2023-03-26T07:11:20.703Z,98633.66
2023-03-26T07:14:40.674Z,98630.47
2023-03-26T07:18:08.151Z,98624.06
2023-03-26T07:21:12.103Z,98626.47
2023-03-26T07:24:14.046Z,98609.47
2023-03-26T07:27:42.812Z,98605.94
2023-03-26T07:31:00.657Z,98612.91
2023-03-26T07:34:50.160Z,98614.69
2023-03-26T07:38:33.064Z,98615.72
2023-03-26T07:42:35.715Z,98629.72
2023-03-26T07:45:57.314Z,98630.75
2023-03-26T07:49:17.882Z,98628.53
2023-03-26T07:52:39.425Z,98646.84
2023-03-26T07:56:15.911Z,98655.31
2023-03-26T08:00:09.544Z,98665.66
2023-03-26T08:03:50.815Z,98669.53
2023-03-26T08:07:16.625Z,98668.66
2023-03-26T08:11:12.747Z,98673.84
2023-03-26T08:14:44.352Z,98689.25
2023-03-26T08:17:54.077Z,98676.25
2023-03-26T08:21:06.186Z,98681.22
2023-03-26T08:24:30.875Z,98674.97
2023-03-26T08:27:47.839Z,98677.50
2023-03-26T08:30:50.362Z,98684.06
2023-03-26T08:33:51.779Z,98683.50
2023-03-26T08:36:53.173Z,98693.00
2023-03-26T08:39:54.766Z,98694.19
2023-03-26T08:43:18.093Z,98693.28
2023-03-26T08:46:26.326Z,98699.66
2023-03-26T08:49:38.318Z,98698.81
2023-03-26T08:52:55.663Z,98705.22
2023-03-26T08:56:07.417Z,98688.63
2023-03-26T08:59:34.492Z,98687.59
2023-03-26T09:02:54.196Z,98686.19
2023-03-26T09:06:36.628Z,98678.22
2023-03-26T09:10:09.394Z,98682.13
2023-03-26T09:13:23.726Z,98685.59
2023-03-26T09:17:03.891Z,98685.84
2023-03-26T09:20:39.528Z,98684.03
2023-03-26T09:24:03.058Z,98691.69
2023-03-26T09:27:25.855Z,98701.72
2023-03-26T09:30:39.549Z,98693.44
2023-03-26T09:34:01.958Z,98693.53
2023-03-26T09:37:11.618Z,98687.38
2023-03-26T09:40:22.592Z,98690.41
2023-03-26T09:43:48.720Z,98686.16
2023-03-26T09:47:27.181Z,98690.09
2023-03-26T09:50:56.767Z,98690.84
2023-03-26T09:54:28.433Z,98696.59
2023-03-26T09:57:58.552Z,98688.88
2023-03-26T10:01:16.357Z,98688.38
2023-03-26T10:04:46.120Z,98691.41
2023-03-26T10:07:53.484Z,98681.59
2023-03-26T10:11:07.098Z,98677.50
2023-03-26T10:14:50.857Z,98669.81
2023-03-26T10:18:29.906Z,98685.59
2023-03-26T10:21:45.283Z,98683.50
2023-03-26T10:25:14.822Z,98683.66
2023-03-26T10:28:53.781Z,98688.81
2023-03-26T10:32:34.688Z,98689.34
2023-03-26T10:35:56.206Z,98676.31
2023-03-26T10:39:35.938Z,98669.91
2023-03-26T10:42:59.405Z,98670.66
2023-03-26T10:46:39.526Z,98662.19
2023-03-26T10:50:16.005Z,98668.91
2023-03-26T10:53:50.856Z,98665.75
2023-03-26T10:56:54.667Z,98660.16
2023-03-26T11:00:00.787Z,98661.38
2023-03-26T11:03:32.190Z,98653.13
2023-03-26T11:06:36.531Z,98652.72
2023-03-26T11:09:51.490Z,98657.06
2023-03-26T11:13:22.240Z,98648.16
2023-03-26T11:17:04.619Z,98643.78
2023-03-26T11:20:39.677Z,98630.59
2023-03-26T11:24:05.050Z,98625.91
2023-03-26T11:27:22.632Z,98632.53
2023-03-26T11:30:46.827Z,98631.53
2023-03-26T11:33:53.566Z,98619.75
2023-03-26T11:36:57.891Z,98614.34
2023-03-26T11:40:06.338Z,98630.38
2023-03-26T11:43:12.039Z,98622.47
2023-03-26T11:46:16.682Z,98612.22
2023-03-26T11:49:21.508Z,98624.09
2023-03-26T11:52:23.258Z,98606.69
2023-03-26T11:55:27.142Z,98600.81
2023-03-26T11:58:29.741Z,98605.44
2023-03-26T12:02:14.781Z,98595.75
2023-03-26T12:05:22.311Z,98587.78
2023-03-26T12:08:32.843Z,98568.63
2023-03-26T12:11:36.014Z,98571.97
2023-03-26T12:14:42.632Z,98565.97
2023-03-26T12:17:44.643Z,98568.19
2023-03-26T12:20:46.158Z,98560.41
2023-03-26T12:23:53.885Z,98567.63
2023-03-26T12:27:21.532Z,98553.16
2023-03-26T12:30:25.801Z,98555.03
2023-03-26T12:33:34.680Z,98559.44
2023-03-26T12:36:38.845Z,98566.78
2023-03-26T12:40:08.759Z,98571.06
2023-03-26T12:44:50.058Z,98598.50
2023-03-26T12:47:57.978Z,98612.56
2023-03-26T12:50:14.425Z,98600.81
2023-03-26T12:53:49.998Z,98581.16
2023-03-26T12:57:12.452Z,98553.31
2023-03-26T13:00:40.727Z,98536.63
2023-03-26T13:04:10.992Z,98536.47
2023-03-26T13:07:17.106Z,98530.47
2023-03-26T13:10:44.199Z,98543.13
2023-03-26T13:14:33.723Z,98549.53
2023-03-26T13:18:03.648Z,98544.53
2023-03-26T13:21:28.480Z,98537.88
2023-03-26T13:24:53.602Z,98533.03
2023-03-26T13:28:04.450Z,98531.56
2023-03-26T13:31:15.891Z,98547.16
2023-03-26T13:34:40.706Z,98553.03
2023-03-26T13:37:55.523Z,98559.22
2023-03-26T13:41:41.414Z,98585.06
2023-03-26T13:45:11.430Z,98605.66
2023-03-26T13:48:24.936Z,98616.03
2023-03-26T13:51:40.659Z,98638.41
2023-03-26T13:54:57.702Z,98636.25
2023-03-26T13:58:06.068Z,98621.25
2023-03-26T14:01:12.499Z,98617.53
2023-03-26T14:04:37.184Z,98620.38
2023-03-26T14:07:48.509Z,98647.75
2023-03-26T14:10:56.957Z,98660.13
2023-03-26T14:14:13.920Z,98676.25
2023-03-26T14:17:28.467Z,98688.63
2023-03-26T14:20:45.216Z,98698.56
2023-03-26T14:23:55.904Z,98701.63
2023-03-26T14:27:19.928Z,98700.66
2023-03-26T14:30:39.626Z,98696.56
2023-03-26T14:34:26.078Z,98668.47
2023-03-26T14:37:36.587Z,98658.56
2023-03-26T14:41:01.892Z,98641.19
2023-03-26T14:44:47.566Z,98646.53
2023-03-26T14:48:25.837Z,98631.69
2023-03-26T14:52:03.653Z,98637.41
2023-03-26T14:55:16.901Z,98660.56
2023-03-26T14:58:56.294Z,98676.81
2023-03-26T15:02:13.834Z,98672.00
2023-03-26T15:05:59.220Z,98677.88
2023-03-26T15:09:30.823Z,98690.19
2023-03-26T15:12:44.763Z,98703.00
2023-03-26T15:15:57.968Z,98707.88
2023-03-26T15:19:41.532Z,98702.72
2023-03-26T15:23:08.165Z,98715.38
2023-03-26T15:26:41.733Z,98704.94
2023-03-26T15:30:09.593Z,98698.09
2023-03-26T15:33:38.384Z,98700.22
2023-03-26T15:36:56.581Z,98698.41
2023-03-26T15:40:25.245Z,98697.75
2023-03-26T15:44:23.041Z,98693.84
2023-03-26T15:47:40.873Z,98697.28
2023-03-26T15:51:07.713Z,98691.88
2023-03-26T15:54:18.416Z,98679.81
2023-03-26T15:57:34.819Z,98673.66
2023-03-26T16:00:51.242Z,98683.75
2023-03-26T16:04:16.199Z,98683.75
2023-03-26T16:07:42.180Z,98691.09
2023-03-26T16:10:56.143Z,98688.81
2023-03-26T16:14:17.881Z,98687.31
2023-03-26T16:17:23.333Z,98688.97
2023-03-26T16:20:33.064Z,98685.38
2023-03-26T16:23:53.723Z,98693.69
2023-03-26T16:27:32.080Z,98691.22
2023-03-26T16:30:34.160Z,98689.94
2023-03-26T16:33:57.285Z,98685.63
2023-03-26T16:36:59.646Z,98690.78
2023-03-26T16:40:16.794Z,98686.78
2023-03-26T16:43:53.757Z,98683.34
2023-03-26T16:47:24.915Z,98688.69
2023-03-26T16:50:46.118Z,98693.84
2023-03-26T16:54:03.971Z,98694.84
2023-03-26T16:57:28.812Z,98686.03
2023-03-26T17:01:11.401Z,98687.00
2023-03-26T17:04:25.526Z,98690.91
2023-03-26T17:07:38.701Z,98692.88
2023-03-26T17:10:56.377Z,98693.69
2023-03-26T17:14:19.754Z,98700.72
2023-03-26T17:17:38.317Z,98704.94
2023-03-26T17:20:46.067Z,98704.63
2023-03-26T17:24:06.757Z,98706.88
2023-03-26T17:27:26.562Z,98709.69
2023-03-26T17:30:57.472Z,98713.91
2023-03-26T17:34:45.320Z,98711.16
2023-03-26T17:37:48.008Z,98714.25
2023-03-26T17:40:51.681Z,98732.28
2023-03-26T17:43:56.691Z,98734.63
2023-03-26T17:47:00.765Z,98735.25
2023-03-26T17:50:16.307Z,98740.16
2023-03-26T17:53:28.203Z,98742.47
2023-03-26T17:56:34.673Z,98752.75
2023-03-26T17:59:38.789Z,98748.81
2023-03-26T18:02:47.906Z,98753.84
2023-03-26T18:05:55.884Z,98752.59
2023-03-26T18:09:22.312Z,98748.47
2023-03-26T18:12:50.797Z,98750.25
2023-03-26T18:16:17.263Z,98748.19
2023-03-26T18:19:22.481Z,98748.34
2023-03-26T18:22:28.508Z,98758.81
2023-03-26T18:25:35.073Z,98754.88
2023-03-26T18:28:42.478Z,98749.63
2023-03-26T18:31:46.363Z,98745.72
2023-03-26T18:34:53.117Z,98740.00
2023-03-26T18:38:01.023Z,98730.53
2023-03-26T18:41:03.547Z,98733.16
2023-03-26T18:44:07.731Z,98733.19
2023-03-26T18:47:11.592Z,98724.69
2023-03-26T18:50:21.212Z,98721.91
2023-03-26T18:53:28.423Z,98714.25
2023-03-26T18:56:35.231Z,98713.41
2023-03-26T18:59:41.249Z,98706.25
2023-03-26T19:02:44.153Z,98708.69
2023-03-26T19:05:45.738Z,98712.13
2023-03-26T19:08:47.935Z,98719.63
2023-03-26T19:11:55.151Z,98717.69
2023-03-26T19:15:07.809Z,98713.09
2023-03-26T19:18:14.054Z,98712.78
2023-03-26T19:21:17.938Z,98707.38
2023-03-26T19:24:21.358Z,98711.47
2023-03-26T19:27:23.189Z,98700.22
2023-03-26T19:30:32.526Z,98708.69
2023-03-26T19:33:37.290Z,98708.03
2023-03-26T19:36:57.931Z,98707.72
2023-03-26T19:40:14.215Z,98705.28
2023-03-26T19:43:15.951Z,98711.16
2023-03-26T19:46:19.257Z,98709.69
2023-03-26T19:49:33.783Z,98702.34
2023-03-26T19:52:38.330Z,98710.66
2023-03-26T19:55:42.096Z,98707.53
2023-03-26T19:58:43.641Z,98704.94
2023-03-26T20:01:45.157Z,98706.25
2023-03-26T20:04:46.758Z,98703.66
2023-03-26T20:07:50.066Z,98709.97
2023-03-26T20:10:51.504Z,98707.06
2023-03-26T20:13:52.946Z,98703.63
2023-03-26T20:16:54.542Z,98709.19
2023-03-26T20:19:56.039Z,98709.16
2023-03-26T20:22:57.505Z,98717.31
2023-03-26T20:25:58.926Z,98704.28
2023-03-26T20:29:00.345Z,98713.72
2023-03-26T20:32:06.250Z,98715.31
2023-03-26T20:35:37.713Z,98716.34
2023-03-26T20:38:40.859Z,98716.34
2023-03-26T20:41:47.821Z,98726.06
2023-03-26T20:44:49.338Z,98723.19
2023-03-26T20:47:50.941Z,98721.56
2023-03-26T20:50:52.845Z,98724.69
2023-03-26T20:53:54.354Z,98726.81
2023-03-26T20:56:56.454Z,98723.66
2023-03-26T20:59:59.503Z,98727.75
2023-03-26T21:03:00.990Z,98725.63
2023-03-26T21:06:04.703Z,98724.81
2023-03-26T21:09:06.487Z,98724.84
2023-03-26T21:12:15.085Z,98734.13
2023-03-26T21:15:23.453Z,98738.19
2023-03-26T21:18:25.454Z,98743.09
2023-03-26T21:21:52.445Z,98740.06
2023-03-26T21:24:59.673Z,98744.09
2023-03-26T21:28:14.599Z,98743.88
2023-03-26T21:31:21.809Z,98743.69
2023-03-26T21:34:23.638Z,98746.00
2023-03-26T21:37:25.558Z,98752.38
2023-03-26T21:40:27.897Z,98749.31
2023-03-26T21:43:29.308Z,98752.53
2023-03-26T21:46:31.859Z,98755.63
2023-03-26T21:49:33.870Z,98761.81
2023-03-26T21:52:35.911Z,98757.44
2023-03-26T21:56:03.107Z,98750.56
2023-03-26T21:59:05.054Z,98762.06
2023-03-26T22:02:23.189Z,98767.44
2023-03-26T22:05:45.081Z,98762.72
2023-03-26T22:08:47.885Z,98774.50
2023-03-26T22:11:49.325Z,98776.50
2023-03-26T22:14:52.048Z,98774.63
2023-03-26T22:17:56.097Z,98778.59
2023-03-26T22:20:59.031Z,98794.09
2023-03-26T22:24:03.780Z,98792.00
2023-03-26T22:27:05.478Z,98809.16
2023-03-26T22:30:08.122Z,98811.59
2023-03-26T22:33:12.466Z,98817.09
2023-03-26T22:36:22.681Z,98824.31
2023-03-26T22:39:25.021Z,98830.84
2023-03-26T22:42:26.655Z,98839.22
2023-03-26T22:45:28.141Z,98849.81
2023-03-26T22:48:31.028Z,98847.34
2023-03-26T22:51:32.750Z,98860.44
2023-03-26T22:54:36.399Z,98876.28
2023-03-26T22:57:38.526Z,98880.28
2023-03-26T23:00:39.917Z,98882.00
2023-03-26T23:03:41.467Z,98884.75
2023-03-26T23:06:43.003Z,98883.50
2023-03-26T23:09:45.488Z,98886.28
2023-03-26T23:12:46.969Z,98883.66
2023-03-26T23:15:56.963Z,98885.50
2023-03-26T23:18:58.530Z,98894.38
2023-03-26T23:21:59.950Z,98902.44
2023-03-26T23:25:01.872Z,98907.94
2023-03-26T23:28:03.458Z,98907.84
2023-03-26T23:31:07.472Z,98920.03
2023-03-26T23:34:08.982Z,98922.59
2023-03-26T23:37:11.024Z,98925.41
2023-03-26T23:40:13.545Z,98927.41
2023-03-26T23:43:15.284Z,98934.78
2023-03-26T23:46:23.922Z,98942.63
2023-03-26T23:49:25.414Z,98941.75
2023-03-26T23:52:27.148Z,98949.47
2023-03-26T23:55:28.669Z,98952.09
2023-03-26T23:58:30.602Z,98960.34
